createdAt,value
2018-04-15T00:01:24.243Z,74.20
2018-04-15T00:03:51.828Z,73.80
2018-04-15T00:06:19.416Z,74.00
2018-04-15T00:08:47.783Z,75.70
2018-04-15T00:11:15.508Z,75.60
2018-04-15T00:13:43.096Z,75.80
2018-04-15T00:16:10.673Z,76.40
2018-04-15T00:18:38.255Z,76.50
2018-04-15T00:21:06.575Z,77.70
2018-04-15T00:23:34.189Z,77.60
2018-04-15T00:26:02.556Z,76.10
2018-04-15T00:28:30.889Z,75.60
2018-04-15T00:30:58.489Z,75.50
2018-04-15T00:33:26.841Z,76.50
2018-04-15T00:35:54.397Z,76.40
2018-04-15T00:38:22.142Z,76.50
2018-04-15T00:40:49.708Z,77.40
2018-04-15T00:43:17.276Z,77.80
2018-04-15T00:45:44.873Z,77.60
2018-04-15T00:48:13.250Z,76.90
2018-04-15T00:50:41.633Z,75.90
2018-04-15T00:53:09.961Z,75.60
2018-04-15T00:55:37.561Z,75.70
2018-04-15T00:58:05.892Z,77.10
2018-04-15T01:00:33.473Z,77.10
2018-04-15T01:03:01.797Z,78.10
2018-04-15T01:05:29.402Z,78.10
2018-04-15T01:07:57.044Z,78.40
2018-04-15T01:10:24.698Z,78.70
2018-04-15T01:12:52.277Z,79.00
2018-04-15T01:15:19.969Z,78.50
2018-04-15T01:17:48.292Z,79.30
2018-04-15T01:20:15.949Z,79.30
2018-04-15T01:22:43.549Z,79.40
2018-04-15T01:25:11.112Z,79.60
2018-04-15T01:27:39.482Z,78.20
2018-04-15T01:30:07.039Z,78.20
2018-04-15T01:32:34.628Z,77.30
2018-04-15T01:35:02.967Z,76.80
2018-04-15T01:37:30.565Z,76.60
2018-04-15T01:39:58.881Z,76.20
2018-04-15T01:42:26.573Z,76.20
2018-04-15T01:44:54.209Z,76.70
2018-04-15T01:47:21.813Z,75.70
2018-04-15T01:49:50.158Z,75.90
2018-04-15T01:52:17.882Z,75.90
2018-04-15T01:54:45.476Z,76.90
2018-04-15T01:57:13.083Z,77.90
2018-04-15T01:59:40.666Z,78.50
2018-04-15T02:02:08.236Z,77.90
2018-04-15T02:04:35.847Z,78.10
2018-04-15T02:07:04.187Z,79.30
2018-04-15T02:09:31.774Z,79.20
2018-04-15T02:12:00.332Z,79.60
2018-04-15T02:14:27.892Z,79.50
2018-04-15T02:16:55.477Z,79.90
2018-04-15T02:19:23.812Z,80.00
2018-04-15T02:21:51.409Z,80.00
2018-04-15T02:24:19.937Z,81.50
2018-04-15T02:26:47.524Z,81.40
2018-04-15T02:29:15.081Z,81.60
2018-04-15T02:31:42.678Z,81.90
2018-04-15T02:34:11.089Z,82.50
2018-04-15T02:36:38.645Z,82.50
2018-04-15T02:39:06.277Z,82.10
2018-04-15T02:41:34.632Z,82.70
2018-04-15T02:44:02.222Z,82.70
2018-04-15T02:46:29.781Z,82.80
2018-04-15T02:48:57.377Z,83.10
2018-04-15T02:51:24.976Z,83.40
2018-04-15T02:53:53.297Z,82.90
2018-04-15T02:56:20.877Z,82.80
2018-04-15T02:58:48.465Z,83.70
2018-04-15T03:01:17.576Z,84.20
2018-04-15T03:03:45.300Z,84.20
2018-04-15T03:06:12.969Z,83.30
2018-04-15T03:08:40.641Z,83.80
2018-04-15T03:11:08.993Z,84.20
2018-04-15T03:13:36.557Z,84.30
2018-04-15T03:16:04.146Z,83.80
2018-04-15T03:18:32.513Z,83.00
2018-04-15T03:21:00.110Z,83.00
2018-04-15T03:23:27.679Z,83.80
2018-04-15T03:25:55.307Z,83.20
2018-04-15T03:28:23.697Z,83.40
2018-04-15T03:30:51.294Z,83.40
2018-04-15T03:33:18.844Z,83.50
2018-04-15T03:35:46.393Z,83.00
2018-04-15T03:38:13.973Z,83.50
2018-04-15T03:40:41.526Z,84.00
2018-04-15T03:43:09.112Z,84.20
2018-04-15T03:45:36.682Z,84.00
2018-04-15T03:48:05.033Z,84.50
2018-04-15T03:50:32.596Z,84.40
2018-04-15T03:53:00.193Z,84.90
2018-04-15T03:55:28.514Z,83.90
2018-04-15T03:57:56.100Z,83.90
2018-04-15T04:00:23.656Z,83.60
2018-04-15T04:02:51.232Z,84.00
2018-04-15T04:05:19.610Z,82.90
2018-04-15T04:07:48.072Z,82.90
2018-04-15T04:10:15.661Z,82.90
2018-04-15T04:12:43.977Z,83.50
2018-04-15T04:15:11.561Z,83.40
2018-04-15T04:17:50.988Z,83.30
2018-04-15T04:20:30.501Z,83.60
2018-04-15T04:23:10.035Z,82.90
2018-04-15T04:25:49.541Z,82.30
2018-04-15T04:28:17.905Z,81.70
2018-04-15T04:30:46.421Z,81.70
2018-04-15T04:33:14.002Z,81.80
2018-04-15T04:35:41.597Z,83.10
2018-04-15T04:38:09.161Z,83.50
2018-04-15T04:40:36.749Z,83.00
2018-04-15T04:43:04.377Z,83.10
2018-04-15T04:45:31.955Z,81.70
2018-04-15T04:47:59.513Z,81.80
2018-04-15T04:50:28.061Z,81.80
2018-04-15T04:52:55.617Z,81.70
2018-04-15T04:55:23.228Z,81.70
2018-04-15T04:57:50.781Z,81.90
2018-04-15T05:00:18.365Z,81.80
2018-04-15T05:02:45.925Z,81.20
2018-04-15T05:05:13.584Z,81.70
2018-04-15T05:07:41.265Z,82.80
2018-04-15T05:10:09.639Z,83.60
2018-04-15T05:12:37.256Z,83.60
2018-04-15T05:15:04.822Z,83.90
2018-04-15T05:17:32.400Z,83.80
2018-04-15T05:19:59.953Z,84.30
2018-04-15T05:22:27.540Z,84.80
2018-04-15T05:24:55.109Z,84.70
2018-04-15T05:27:22.696Z,83.70
2018-04-15T05:29:51.137Z,83.00
2018-04-15T05:32:18.770Z,83.50
2018-04-15T05:34:47.097Z,79.20
2018-04-15T05:37:15.528Z,79.00
2018-04-15T05:39:43.128Z,78.80
2018-04-15T05:42:10.842Z,78.60
2018-04-15T05:44:38.586Z,81.20
2018-04-15T05:47:06.145Z,81.10
2018-04-15T05:49:33.861Z,80.70
2018-04-15T05:52:01.434Z,81.40
2018-04-15T05:54:29.056Z,80.80
2018-04-15T05:56:56.630Z,81.40
2018-04-15T05:59:24.389Z,80.20
2018-04-15T06:01:51.958Z,79.20
2018-04-15T06:04:19.547Z,79.80
2018-04-15T06:06:47.870Z,79.40
2018-04-15T06:09:15.454Z,79.20
2018-04-15T06:11:43.276Z,78.30
2018-04-15T06:14:10.840Z,78.00
2018-04-15T06:16:38.421Z,78.20
2018-04-15T06:19:06.049Z,76.70
2018-04-15T06:21:33.609Z,75.40
2018-04-15T06:24:01.211Z,76.20
2018-04-15T06:26:28.775Z,74.70
2018-04-15T06:28:56.518Z,75.40
2018-04-15T06:31:24.098Z,74.50
2018-04-15T06:33:51.758Z,73.40
2018-04-15T06:36:19.374Z,73.30
2018-04-15T06:38:47.028Z,71.80
2018-04-15T06:41:14.629Z,71.20
2018-04-15T06:43:42.201Z,68.60
2018-04-15T06:46:09.789Z,66.90
2018-04-15T06:48:38.133Z,64.80
2018-04-15T06:51:06.473Z,63.40
2018-04-15T06:53:34.045Z,63.40
2018-04-15T06:56:01.588Z,63.50
2018-04-15T06:58:29.366Z,61.80
2018-04-15T07:00:56.916Z,63.50
2018-04-15T07:03:24.512Z,64.70
2018-04-15T07:05:52.281Z,62.70
2018-04-15T07:08:19.830Z,63.60
2018-04-15T07:10:48.275Z,59.50
2018-04-15T07:13:15.863Z,59.50
2018-04-15T07:15:43.706Z,57.90
2018-04-15T07:18:11.273Z,58.80
2018-04-15T07:20:38.861Z,58.10
2018-04-15T07:23:06.573Z,58.20
2018-04-15T07:25:34.177Z,56.20
2018-04-15T07:28:01.727Z,54.70
2018-04-15T07:30:29.335Z,53.50
2018-04-15T07:32:56.933Z,52.60
2018-04-15T07:35:24.510Z,52.40
2018-04-15T07:37:52.180Z,57.40
2018-04-15T07:40:19.778Z,58.50
2018-04-15T07:42:47.344Z,59.90
2018-04-15T07:45:14.942Z,59.30
2018-04-15T07:47:42.616Z,59.30
2018-04-15T07:50:10.188Z,57.00
2018-04-15T07:52:38.693Z,60.20
2018-04-15T07:55:06.258Z,60.20
2018-04-15T07:57:33.852Z,62.80
2018-04-15T08:00:01.417Z,64.10
2018-04-15T08:02:29.252Z,64.10
2018-04-15T08:04:56.852Z,64.30
2018-04-15T08:07:24.565Z,62.60
2018-04-15T08:09:52.118Z,61.80
2018-04-15T08:12:19.734Z,60.40
2018-04-15T08:14:47.286Z,59.40
2018-04-15T08:17:14.897Z,59.10
2018-04-15T08:19:42.509Z,60.80
2018-04-15T08:22:10.226Z,60.40
2018-04-15T08:24:37.825Z,61.20
2018-04-15T08:27:05.517Z,58.40
2018-04-15T08:29:33.860Z,56.30
2018-04-15T08:32:01.625Z,56.30
2018-04-15T08:34:29.196Z,59.20
2018-04-15T08:36:57.525Z,59.90
2018-04-15T08:39:25.129Z,59.80
2018-04-15T08:41:52.801Z,59.30
2018-04-15T08:44:21.209Z,57.40
2018-04-15T08:46:48.785Z,57.30
2018-04-15T08:49:16.461Z,58.90
2018-04-15T08:51:44.049Z,58.60
2018-04-15T08:54:11.658Z,56.60
2018-04-15T08:56:39.257Z,52.90
2018-04-15T08:59:06.845Z,52.00
2018-04-15T09:01:35.230Z,55.70
2018-04-15T09:04:03.039Z,55.60
2018-04-15T09:06:30.637Z,59.90
2018-04-15T09:08:59.011Z,61.90
2018-04-15T09:11:27.349Z,59.80
2018-04-15T09:13:54.938Z,59.80
2018-04-15T09:16:22.539Z,58.80
2018-04-15T09:18:50.101Z,59.80
2018-04-15T09:21:17.678Z,59.80
2018-04-15T09:23:45.244Z,59.30
2018-04-15T09:26:12.825Z,59.50
2018-04-15T09:28:40.389Z,58.90
2018-04-15T09:31:11.913Z,56.80
2018-04-15T09:33:39.474Z,58.30
2018-04-15T09:36:07.077Z,55.60
2018-04-15T09:38:35.414Z,54.50
2018-04-15T09:41:03.161Z,54.50
2018-04-15T09:43:30.856Z,54.30
2018-04-15T09:45:58.645Z,57.80
2018-04-15T09:48:27.010Z,55.00
2018-04-15T09:50:55.347Z,55.00
2018-04-15T09:53:22.941Z,55.00
2018-04-15T09:55:51.268Z,54.50
2018-04-15T09:58:18.974Z,54.50
2018-04-15T10:00:48.333Z,56.60
2018-04-15T10:03:15.988Z,56.10
2018-04-15T10:05:43.557Z,57.10
2018-04-15T10:08:11.252Z,58.00
2018-04-15T10:10:39.594Z,59.50
2018-04-15T10:13:07.256Z,59.30
2018-04-15T10:15:34.852Z,58.10
2018-04-15T10:18:03.212Z,60.20
2018-04-15T10:20:30.809Z,59.60
2018-04-15T10:22:58.366Z,59.80
2018-04-15T10:25:26.776Z,57.40
2018-04-15T10:27:54.341Z,57.40
2018-04-15T10:30:21.937Z,57.90
2018-04-15T10:32:49.517Z,59.50
2018-04-15T10:35:18.122Z,57.10
2018-04-15T10:37:45.699Z,57.10
2018-04-15T10:40:13.277Z,56.80
2018-04-15T10:42:40.857Z,57.50
2018-04-15T10:45:08.485Z,56.20
2018-04-15T10:47:36.054Z,56.80
2018-04-15T10:50:03.631Z,57.00
2018-04-15T10:52:31.406Z,54.50
2018-04-15T10:54:59.748Z,55.20
2018-04-15T10:57:27.355Z,55.10
2018-04-15T10:59:55.739Z,54.40
2018-04-15T11:02:23.320Z,54.40
2018-04-15T11:04:50.899Z,54.20
2018-04-15T11:07:18.510Z,55.00
2018-04-15T11:09:46.858Z,57.60
2018-04-15T11:12:14.592Z,57.60
2018-04-15T11:14:42.161Z,55.90
2018-04-15T11:17:09.813Z,53.90
2018-04-15T11:19:37.415Z,52.80
2018-04-15T11:22:05.816Z,56.00
2018-04-15T11:24:33.401Z,55.90
2018-04-15T11:27:00.985Z,55.40
2018-04-15T11:29:28.571Z,55.80
2018-04-15T11:31:56.935Z,55.70
2018-04-15T11:34:24.511Z,55.70
2018-04-15T11:36:52.878Z,55.90
2018-04-15T11:39:20.452Z,55.90
2018-04-15T11:41:48.779Z,54.30
2018-04-15T11:44:16.373Z,54.20
2018-04-15T11:46:44.714Z,55.30
2018-04-15T11:49:12.345Z,55.30
2018-04-15T11:51:40.189Z,54.10
2018-04-15T11:54:07.777Z,54.00
2018-04-15T11:56:35.425Z,54.70
2018-04-15T11:59:03.054Z,55.80
2018-04-15T12:01:31.464Z,54.20
2018-04-15T12:03:59.069Z,53.70
2018-04-15T12:06:26.624Z,54.20
2018-04-15T12:08:54.216Z,53.80
2018-04-15T12:11:22.620Z,51.20
2018-04-15T12:13:50.181Z,51.20
2018-04-15T12:16:17.799Z,51.10
2018-04-15T12:18:45.665Z,52.30
2018-04-15T12:21:14.026Z,53.60
2018-04-15T12:23:41.627Z,53.50
2018-04-15T12:26:09.249Z,52.90
2018-04-15T12:28:36.822Z,52.10
2018-04-15T12:31:04.446Z,53.20
2018-04-15T12:33:32.010Z,53.60
2018-04-15T12:35:59.605Z,53.20
2018-04-15T12:38:27.953Z,50.90
2018-04-15T12:40:55.562Z,50.90
2018-04-15T12:43:23.269Z,52.70
2018-04-15T12:45:50.873Z,54.30
2018-04-15T12:48:19.256Z,53.70
2018-04-15T12:50:47.040Z,53.60
2018-04-15T12:53:14.657Z,51.70
2018-04-15T12:55:42.226Z,52.30
2018-04-15T12:58:10.713Z,52.80
2018-04-15T13:00:39.082Z,52.20
2018-04-15T13:03:07.473Z,52.00
2018-04-15T13:05:35.975Z,51.20
2018-04-15T13:08:03.521Z,51.10
2018-04-15T13:10:31.117Z,51.40
2018-04-15T13:12:58.670Z,49.80
2018-04-15T13:15:26.265Z,51.80
2018-04-15T13:17:53.861Z,50.80
2018-04-15T13:20:21.456Z,52.40
2018-04-15T13:22:49.040Z,51.70
2018-04-15T13:25:17.482Z,53.10
2018-04-15T13:27:45.073Z,53.50
2018-04-15T13:30:14.209Z,52.10
2018-04-15T13:32:41.779Z,52.00
2018-04-15T13:35:09.444Z,51.90
2018-04-15T13:37:37.001Z,51.00
2018-04-15T13:40:04.601Z,50.80
2018-04-15T13:42:32.173Z,51.60
2018-04-15T13:45:00.546Z,49.70
2018-04-15T13:47:28.210Z,49.70
2018-04-15T13:49:55.872Z,50.40
2018-04-15T13:52:24.401Z,50.90
2018-04-15T13:54:52.013Z,50.80
2018-04-15T13:57:20.372Z,47.90
2018-04-15T13:59:48.081Z,47.80
2018-04-15T14:02:15.678Z,45.30
2018-04-15T14:04:43.246Z,45.90
2018-04-15T14:07:10.877Z,47.30
2018-04-15T14:09:38.443Z,47.30
2018-04-15T14:12:06.123Z,48.50
2018-04-15T14:14:33.805Z,48.80
2018-04-15T14:17:01.402Z,48.80
2018-04-15T14:19:29.046Z,49.30
2018-04-15T14:21:57.408Z,49.20
2018-04-15T14:24:25.755Z,48.10
2018-04-15T14:26:53.451Z,48.20
2018-04-15T14:29:21.826Z,48.80
2018-04-15T14:31:50.345Z,48.90
2018-04-15T14:34:17.936Z,48.90
2018-04-15T14:36:45.501Z,49.40
2018-04-15T14:39:13.094Z,48.50
2018-04-15T14:41:41.423Z,47.40
2018-04-15T14:44:09.032Z,47.30
2018-04-15T14:46:37.429Z,47.10
2018-04-15T14:49:05.014Z,47.10
2018-04-15T14:51:32.586Z,47.50
2018-04-15T14:54:00.411Z,49.00
2018-04-15T14:56:27.985Z,48.30
2018-04-15T14:58:55.591Z,47.90
2018-04-15T15:01:23.942Z,49.20
2018-04-15T15:03:51.534Z,48.40
2018-04-15T15:06:19.947Z,48.00
2018-04-15T15:08:47.508Z,47.90
2018-04-15T15:11:15.137Z,48.50
2018-04-15T15:13:43.598Z,48.10
2018-04-15T15:16:11.306Z,48.00
2018-04-15T15:18:38.873Z,49.40
2018-04-15T15:21:06.478Z,48.90
2018-04-15T15:23:34.044Z,49.10
2018-04-15T15:26:02.396Z,49.10
2018-04-15T15:28:29.968Z,49.00
2018-04-15T15:30:58.339Z,48.80
2018-04-15T15:33:25.898Z,48.20
2018-04-15T15:35:53.468Z,48.40
2018-04-15T15:38:21.842Z,48.50
2018-04-15T15:40:49.508Z,47.70
2018-04-15T15:43:17.926Z,49.50
2018-04-15T15:45:45.516Z,49.50
2018-04-15T15:48:13.199Z,48.00
2018-04-15T15:50:40.794Z,48.70
2018-04-15T15:53:08.370Z,47.80
2018-04-15T15:55:35.956Z,47.40
2018-04-15T15:58:03.530Z,47.90
2018-04-15T16:00:31.174Z,48.40
2018-04-15T16:02:58.733Z,47.40
2018-04-15T16:05:26.303Z,48.70
2018-04-15T16:07:53.894Z,48.20
2018-04-15T16:10:22.247Z,49.20
2018-04-15T16:12:49.965Z,49.20
2018-04-15T16:15:17.578Z,49.00
2018-04-15T16:17:45.169Z,48.80
2018-04-15T16:20:12.889Z,49.70
2018-04-15T16:22:40.445Z,49.30
2018-04-15T16:25:08.033Z,49.00
2018-04-15T16:27:35.671Z,49.90
2018-04-15T16:30:03.334Z,49.30
2018-04-15T16:32:31.635Z,50.60
2018-04-15T16:34:59.256Z,50.00
2018-04-15T16:37:26.815Z,50.20
2018-04-15T16:39:54.472Z,50.80
2018-04-15T16:42:22.033Z,50.00
2018-04-15T16:44:49.633Z,50.40
2018-04-15T16:47:17.201Z,50.30
2018-04-15T16:49:44.926Z,50.30
2018-04-15T16:52:13.358Z,50.80
2018-04-15T16:54:41.043Z,50.70
2018-04-15T16:57:08.670Z,50.70
2018-04-15T16:59:37.036Z,51.20
2018-04-15T17:02:04.621Z,51.20
2018-04-15T17:04:32.334Z,51.40
2018-04-15T17:07:00.715Z,51.60
2018-04-15T17:09:29.073Z,52.10
2018-04-15T17:11:56.684Z,52.10
2018-04-15T17:14:24.305Z,52.50
2018-04-15T17:16:52.685Z,52.30
2018-04-15T17:19:21.070Z,52.80
2018-04-15T17:21:48.695Z,52.70
2018-04-15T17:24:16.299Z,53.60
2018-04-15T17:26:43.899Z,53.50
2018-04-15T17:29:11.501Z,52.80
2018-04-15T17:31:39.906Z,54.00
2018-04-15T17:34:07.503Z,53.40
2018-04-15T17:36:35.093Z,53.90
2018-04-15T17:39:03.542Z,53.80
2018-04-15T17:41:31.129Z,53.60
2018-04-15T17:43:59.477Z,53.60
2018-04-15T17:46:27.111Z,53.50
2018-04-15T17:48:54.766Z,53.70
2018-04-15T17:51:22.358Z,53.50
2018-04-15T17:53:49.950Z,53.80
2018-04-15T17:56:18.316Z,53.60
2018-04-15T17:58:46.709Z,54.70
2018-04-15T18:01:14.283Z,54.10
2018-04-15T18:03:41.849Z,53.70
2018-04-15T18:06:09.449Z,55.30
2018-04-15T18:08:37.137Z,55.30
2018-04-15T18:11:05.496Z,54.00
2018-04-15T18:13:33.074Z,53.90
2018-04-15T18:16:01.553Z,54.50
2018-04-15T18:18:29.888Z,53.60
2018-04-15T18:20:57.581Z,53.50
2018-04-15T18:23:25.269Z,53.70
2018-04-15T18:25:52.839Z,53.30
2018-04-15T18:28:20.431Z,53.00
2018-04-15T18:30:48.006Z,53.00
2018-04-15T18:33:15.712Z,53.10
2018-04-15T18:35:43.337Z,53.30
2018-04-15T18:38:11.707Z,53.40
2018-04-15T18:40:39.385Z,53.30
2018-04-15T18:43:07.859Z,54.00
2018-04-15T18:45:35.424Z,53.90
2018-04-15T18:48:03.798Z,54.30
2018-04-15T18:50:32.130Z,54.20
2018-04-15T18:52:59.775Z,54.20
2018-04-15T18:55:27.362Z,54.10
2018-04-15T18:57:54.981Z,54.90
2018-04-15T19:00:22.610Z,55.20
2018-04-15T19:02:50.185Z,55.10
2018-04-15T19:05:18.579Z,56.30
2018-04-15T19:07:46.238Z,56.20
2018-04-15T19:10:13.828Z,56.70
2018-04-15T19:12:41.411Z,56.50
2018-04-15T19:15:09.090Z,56.80
2018-04-15T19:17:37.424Z,57.80
2018-04-15T19:20:05.015Z,57.80
2018-04-15T19:22:32.613Z,57.60
2018-04-15T19:25:00.223Z,57.00
2018-04-15T19:27:27.820Z,57.50
2018-04-15T19:29:56.212Z,57.30
2018-04-15T19:32:23.858Z,57.30
2018-04-15T19:34:51.497Z,57.10
2018-04-15T19:37:19.920Z,57.80
2018-04-15T19:39:47.534Z,57.80
2018-04-15T19:42:15.300Z,58.40
2018-04-15T19:44:43.743Z,57.60
2018-04-15T19:47:11.346Z,57.60
2018-04-15T19:49:39.734Z,58.30
2018-04-15T19:52:08.140Z,58.80
2018-04-15T19:54:35.863Z,58.50
2018-04-15T19:57:04.249Z,58.50
2018-04-15T19:59:31.839Z,58.50
2018-04-15T20:01:59.401Z,59.20
2018-04-15T20:04:27.104Z,59.10
2018-04-15T20:06:54.771Z,58.60
2018-04-15T20:09:23.348Z,58.70
2018-04-15T20:11:50.944Z,58.70
2018-04-15T20:14:18.620Z,60.10
2018-04-15T20:16:46.929Z,58.90
2018-04-15T20:19:14.638Z,58.90
2018-04-15T20:21:42.204Z,59.30
2018-04-15T20:24:09.802Z,59.60
2018-04-15T20:26:37.471Z,60.70
2018-04-15T20:29:05.080Z,59.90
2018-04-15T20:31:32.693Z,60.00
2018-04-15T20:34:00.464Z,60.50
2018-04-15T20:36:28.050Z,60.20
2018-04-15T20:38:55.774Z,62.00
2018-04-15T20:41:23.405Z,61.20
2018-04-15T20:43:51.166Z,60.90
2018-04-15T20:46:18.742Z,60.10
2018-04-15T20:48:46.580Z,58.70
2018-04-15T20:51:14.198Z,60.20
2018-04-15T20:53:42.540Z,59.60
2018-04-15T20:56:10.167Z,59.60
2018-04-15T20:58:37.793Z,59.70
2018-04-15T21:01:06.280Z,60.40
2018-04-15T21:03:34.704Z,60.40
2018-04-15T21:06:02.351Z,60.40
2018-04-15T21:08:29.993Z,59.30
2018-04-15T21:10:57.639Z,60.20
2018-04-15T21:13:25.981Z,60.30
2018-04-15T21:15:53.593Z,60.10
2018-04-15T21:18:21.198Z,60.20
2018-04-15T21:20:48.758Z,60.40
2018-04-15T21:23:16.355Z,60.60
2018-04-15T21:25:44.698Z,61.70
2018-04-15T21:28:13.118Z,62.30
2018-04-15T21:30:41.486Z,62.70
2018-04-15T21:33:09.864Z,62.60
2018-04-15T21:35:38.209Z,62.10
2018-04-15T21:38:05.835Z,62.00
2018-04-15T21:40:33.426Z,61.10
2018-04-15T21:43:01.029Z,60.80
2018-04-15T21:45:28.723Z,60.40
2018-04-15T21:47:56.303Z,60.60
2018-04-15T21:50:23.911Z,60.30
2018-04-15T21:52:52.237Z,60.30
2018-04-15T21:55:19.828Z,60.30
2018-04-15T21:57:48.361Z,59.50
2018-04-15T22:00:15.972Z,59.50
2018-04-15T22:02:44.289Z,59.10
2018-04-15T22:05:11.881Z,59.00
2018-04-15T22:07:39.466Z,59.70
2018-04-15T22:10:07.901Z,61.00
2018-04-15T22:12:35.466Z,60.90
2018-04-15T22:15:03.050Z,58.90
2018-04-15T22:17:31.374Z,59.30
2018-04-15T22:19:58.999Z,59.30
2018-04-15T22:22:27.330Z,61.60
2018-04-15T22:24:54.906Z,61.50
2018-04-15T22:27:22.511Z,61.20
2018-04-15T22:29:50.083Z,61.70
2018-04-15T22:32:17.676Z,61.10
2018-04-15T22:34:45.241Z,60.90
2018-04-15T22:37:13.009Z,61.00
2018-04-15T22:39:40.619Z,63.10
2018-04-15T22:42:08.205Z,64.20
2018-04-15T22:44:35.790Z,64.70
2018-04-15T22:47:03.392Z,64.80
2018-04-15T22:49:30.953Z,64.80
2018-04-15T22:51:58.550Z,65.00
2018-04-15T22:54:26.122Z,65.70
2018-04-15T22:56:53.714Z,66.10
2018-04-15T22:59:21.292Z,66.10
2018-04-15T23:01:48.857Z,66.80
2018-04-15T23:04:16.594Z,66.80
2018-04-15T23:06:44.173Z,66.80
2018-04-15T23:09:11.777Z,66.90
2018-04-15T23:11:39.391Z,67.90
2018-04-15T23:14:06.961Z,67.50
2018-04-15T23:16:34.533Z,68.00
2018-04-15T23:19:02.979Z,68.90
2018-04-15T23:21:30.577Z,68.40
2018-04-15T23:23:58.181Z,68.60
2018-04-15T23:26:26.516Z,68.50
2018-04-15T23:28:54.117Z,68.50
2018-04-15T23:31:21.803Z,69.10
2018-04-15T23:33:49.393Z,69.40
2018-04-15T23:36:17.018Z,69.20
2018-04-15T23:38:44.605Z,69.20
2018-04-15T23:41:12.169Z,69.00
2018-04-15T23:43:39.717Z,69.30
2018-04-15T23:46:07.302Z,69.40
2018-04-15T23:48:34.886Z,69.40
2018-04-15T23:51:03.209Z,69.40
2018-04-15T23:53:30.806Z,69.30
2018-04-15T23:55:58.374Z,69.40
2018-04-15T23:58:26.724Z,69.90
